Terminal Aerodrome Forecast
Issued by NWS

Home | Current Version | Previous Version | Graphics & Text | Print | Product List | Glossary On
Versions: 1 2 3 4 5 6 7 8 9 10 11 12 13 14 15 16 17 18 19 20 21 22 23 24 25 26 27 28 29 30
000
FTUS43 KPAH 242320
TAFOWB
TAF
KOWB 242320Z 2500/2524 17012G20KT P6SM SCT050 BKN100
     FM250300 18012KT P6SM BKN050
      TEMPO 2506/2510 4SM TSRA BKN030CB
     FM251000 19010KT 4SM -SHRA BR BKN025
     FM251400 20013KT P6SM SCT035 BKN100
     FM251900 19013KT P6SM SCT050 BKN150=

USA.gov is the U.S. government's official web portal to all federal, state and local government web resources and services.